Airfield :
LOGIN :

Register | Disclaimer

   EN    FR    IT 

 










Legend :    VFR   Marginal VFR   IFR   Intensive IFR   Very Intensive IFR
Visi :
Ceiling :
>= 8 km
>= 3000ft
5 to 8 km
1000 to 3000 ft
1500m to 5 km
500 to 1000 ft
800 to 1500m
200 to 500 ft
< 800m
< 200 ft
Symbols :   Thunderstorms  Fog  Heavy snow  Heavy precipitations  Wind > 20 kt
SIGMETs :     Misc.  Thunderstorms  Icing  Turbulence  Mountain Waves  Volcanic Ashes







- Airport Elevation : 32 ft
- IATA code : LKZ


EGUL - RAF Lakenheath

CURRENT METAR :
  • 181056Z AUTO 26011KT 9999 CLR 09/09 A3013 RMK AO2 SLP207 T00870087 $

EXPIRED METARs :
  • 180956Z AUTO 25012KT 9999 CLR 07/07 A3014 RMK AO2 SLP210 T00680068 $

TAF AMD TAF EGUL
Valid from the 17 at 12:00 until the 18 at 18:00 UTC


171822Z 1712/1818 26009KT 9999 SCT020 QNH3009INS
TEMPO 1804/1807 25010G15KT TX10/1715Z TN01/1800Z LAST NO AMDS AFT 1718 NEXT 1815
No reported NOTAMs for that airfield.



MET'MAP, your aeronautical weather chart ! - Copyright ORBIFLY December 2007 - Disclaimer

ORBIFLY MET'MAP TEAM :

Programming & Development : Alexandra Zaïnal
Concept & Development : Baudouin d'Aumeries
Co-Development & Prog : Marc-Olivier Méhu
Technical & hardware support : Manuel Goepfert

Contact : metmap@orbifly.com




SOURCES & CREDITS :

   NOAA